Time;durP1;ratioP1;P1;durP2;ratioP2;P2;SDS_P1;SDS_P2;PMS_P1;PMS_P2;Temp;Humidity;BMP_temperature;BMP_pressure;BME280_temperature;BME280_humidity;BME280_pressure;Samples;Min_cycle;Max_cycle;Signal;HPM_P1;HPM_P2
2022/01/14 00:01:55;;;;;;;3.72;3.53;;;5.40;99.90;;;;;;5138417;27;20053;-80
2022/01/14 00:04:21;;;;;;;3.63;1.80;;;5.40;99.90;;;;;;5157570;27;20088;-79
2022/01/14 00:06:47;;;;;;;3.03;2.15;;;5.50;99.90;;;;;;5156742;27;20486;-80
2022/01/14 00:09:14;;;;;;;0.70;0.70;;;5.50;99.90;;;;;;5157125;27;20043;-78
2022/01/14 00:11:48;;;;;;;1.67;1.30;;;5.50;99.90;;;;;;5157635;27;20296;-78
2022/01/14 00:16:40;;;;;;;1.17;1.15;;;5.50;99.90;;;;;;5138876;27;20126;-79
2022/01/14 00:19:05;;;;;;;7.28;2.17;;;5.30;99.90;;;;;;5156684;27;20040;-78
2022/01/14 00:21:34;;;;;;;1.15;1.13;;;5.50;99.90;;;;;;5156978;27;20035;-78
2022/01/14 00:24:12;;;;;;;0.57;0.57;;;5.50;99.90;;;;;;5138498;27;20474;-79
2022/01/14 00:32:12;;;;;;;1.80;1.70;;;5.50;99.90;;;;;;5156540;27;20053;-77
2022/01/14 00:34:38;;;;;;;1.80;1.70;;;5.50;99.90;;;;;;5138002;27;20045;-77
2022/01/14 00:37:04;;;;;;;0.68;0.68;;;5.50;99.90;;;;;;5138358;27;20406;-78
2022/01/14 00:39:30;;;;;;;3.50;1.50;;;5.50;99.90;;;;;;5156621;27;20053;-77
2022/01/14 00:41:55;;;;;;;9.05;3.70;;;5.60;99.90;;;;;;5156454;27;20549;-76
2022/01/14 00:44:21;;;;;;;0.75;0.75;;;5.60;99.90;;;;;;5156305;27;20046;-76
2022/01/14 00:46:49;;;;;;;3.40;2.47;;;5.60;99.90;;;;;;5137658;27;20073;-78
2022/01/14 00:49:16;;;;;;;13.10;3.50;;;5.60;99.90;;;;;;5156806;27;20051;-78
2022/01/14 00:51:42;;;;;;;0.70;0.70;;;5.60;99.90;;;;;;5137674;27;20102;-77
2022/01/14 00:54:09;;;;;;;0.60;0.60;;;5.60;99.90;;;;;;5156168;27;20043;-78
2022/01/14 00:59:14;;;;;;;1.17;1.13;;;5.70;99.90;;;;;;5155753;27;20043;-76
2022/01/14 01:01:50;;;;;;;1.15;0.80;;;5.70;99.90;;;;;;5155977;27;20042;-78
2022/01/14 01:04:22;;;;;;;0.88;0.88;;;5.70;99.90;;;;;;5156339;27;20046;-79
2022/01/14 01:06:48;;;;;;;1.90;1.77;;;5.70;99.90;;;;;;5155934;27;20121;-77
2022/01/14 01:09:15;;;;;;;1.17;1.08;;;5.70;99.90;;;;;;5156077;27;20042;-77
2022/01/14 01:11:49;;;;;;;0.60;0.60;;;5.70;99.90;;;;;;5155444;27;20039;-78
2022/01/14 01:14:20;;;;;;;3.17;1.40;;;5.70;99.90;;;;;;5156546;27;20038;-77
2022/01/14 01:16:46;;;;;;;0.60;0.60;;;5.70;99.90;;;;;;5156581;27;20452;-79
2022/01/14 01:19:11;;;;;;;5.95;3.42;;;5.80;99.90;;;;;;5156070;27;20045;-78
2022/01/14 01:21:38;;;;;;;0.65;0.65;;;5.80;99.90;;;;;;5137449;27;20385;-76
2022/01/14 01:24:04;;;;;;;0.80;0.80;;;5.80;99.90;;;;;;5137465;27;20116;-77
2022/01/14 01:26:34;;;;;;;1.30;1.20;;;5.90;99.90;;;;;;5155623;27;20130;-77
2022/01/14 01:29:06;;;;;;;0.60;0.60;;;5.90;99.90;;;;;;5137495;27;20042;-77
2022/01/14 01:31:35;;;;;;;0.88;0.88;;;5.90;99.90;;;;;;5156053;27;20039;-77
2022/01/14 01:34:05;;;;;;;3.35;1.60;;;5.90;99.90;;;;;;5155817;27;20106;-77
2022/01/14 01:36:30;;;;;;;1.85;0.98;;;5.90;99.90;;;;;;5137282;27;20578;-78
2022/01/14 01:38:56;;;;;;;1.48;1.38;;;5.90;99.90;;;;;;5137265;27;20070;-78
2022/01/14 01:41:21;;;;;;;0.60;0.60;;;6.40;99.90;;;;;;5137318;27;20050;-79
2022/01/14 01:43:52;;;;;;;0.70;0.70;;;6.60;99.90;;;;;;5120629;27;20043;-77
2022/01/14 01:46:20;;;;;;;1.30;1.15;;;5.90;99.90;;;;;;5137690;27;20050;-77
2022/01/14 01:48:50;;;;;;;0.70;0.70;;;6.00;99.90;;;;;;5119972;27;20221;-76
2022/01/14 01:51:16;;;;;;;1.42;1.35;;;5.90;99.90;;;;;;5155834;27;20039;-78
2022/01/14 01:53:42;;;;;;;1.77;1.67;;;6.00;99.90;;;;;;5120309;27;20386;-78
2022/01/14 01:56:07;;;;;;;0.98;0.98;;;5.90;99.90;;;;;;5120363;27;20045;-77
2022/01/14 01:58:33;;;;;;;0.60;0.60;;;6.00;99.90;;;;;;5137564;27;20061;-77
2022/01/14 02:00:58;;;;;;;1.15;0.93;;;6.00;99.90;;;;;;5136801;27;20045;-76
2022/01/14 02:03:24;;;;;;;0.70;0.70;;;6.00;99.90;;;;;;5137342;27;20035;-77
2022/01/14 02:05:50;;;;;;;0.95;0.95;;;6.00;99.90;;;;;;5155449;27;20039;-78
2022/01/14 02:08:16;;;;;;;1.27;1.17;;;6.00;99.90;;;;;;5155395;27;20047;-78
2022/01/14 02:10:41;;;;;;;0.50;0.50;;;6.00;99.90;;;;;;5155732;27;20039;-78
2022/01/14 02:13:09;;;;;;;0.57;0.57;;;6.00;99.90;;;;;;5119866;27;20489;-77
2022/01/14 02:23:31;;;;;;;0.90;0.90;;;6.00;99.90;;;;;;5155850;27;20047;-77
2022/01/14 02:25:57;;;;;;;0.85;0.85;;;6.00;99.90;;;;;;5124027;27;20050;-79
2022/01/14 02:28:23;;;;;;;0.60;0.60;;;6.00;99.90;;;;;;5140391;27;20390;-78
2022/01/14 02:30:50;;;;;;;0.60;0.60;;;6.00;99.90;;;;;;5123536;27;20041;-77
2022/01/14 02:33:17;;;;;;;1.40;1.30;;;6.50;99.90;;;;;;5158843;27;20054;-77
2022/01/14 02:35:45;;;;;;;1.50;1.40;;;6.00;99.90;;;;;;5140591;27;20039;-77
2022/01/14 02:38:13;;;;;;;0.60;0.60;;;6.10;99.90;;;;;;5158821;27;20046;-77
2022/01/14 02:40:40;;;;;;;0.65;0.65;;;5.90;99.90;;;;;;5159067;27;20484;-78
2022/01/14 02:43:12;;;;;;;1.60;1.15;;;6.00;99.90;;;;;;5123667;27;20047;-78
2022/01/14 02:45:38;;;;;;;1.95;1.65;;;5.90;99.90;;;;;;5140471;27;20049;-77
2022/01/14 02:48:04;;;;;;;0.73;0.73;;;5.90;99.90;;;;;;5158607;27;20505;-78
2022/01/14 02:50:41;;;;;;;1.17;0.93;;;5.90;99.90;;;;;;5123087;27;20061;-78
2022/01/14 02:53:26;;;;;;;1.40;1.30;;;5.90;99.90;;;;;;5140423;27;20142;-78
2022/01/14 02:55:57;;;;;;;2.28;1.73;;;5.90;99.90;;;;;;5140485;27;20382;-77
2022/01/14 02:58:25;;;;;;;1.15;1.10;;;5.90;99.90;;;;;;5140094;27;20174;-79
2022/01/14 03:00:52;;;;;;;1.52;1.42;;;5.80;99.90;;;;;;5158384;27;20070;-76
2022/01/14 03:03:22;;;;;;;1.23;1.17;;;5.80;99.90;;;;;;5140317;27;20046;-78
2022/01/14 03:05:50;;;;;;;2.45;2.25;;;5.90;99.90;;;;;;5140546;27;20051;-77
2022/01/14 03:08:16;;;;;;;;;;;5.80;99.90;;;;;;5140305;27;20141;-78
2022/01/14 03:10:41;;;;;;;1.35;1.27;;;5.80;99.90;;;;;;5122973;27;19919;-78
2022/01/14 03:13:07;;;;;;;1.65;1.25;;;5.80;99.90;;;;;;5140185;27;20051;-77
2022/01/14 03:15:33;;;;;;;2.60;1.52;;;5.90;99.90;;;;;;5140284;27;20042;-78
2022/01/14 03:17:58;;;;;;;1.25;1.15;;;5.80;99.90;;;;;;5139972;27;20045;-77
2022/01/14 03:23:08;;;;;;;5.57;1.35;;;5.90;99.90;;;;;;5157844;27;20478;-78
2022/01/14 03:25:49;;;;;;;1.95;1.85;;;5.80;99.90;;;;;;5158079;27;20060;-77
2022/01/14 03:28:22;;;;;;;0.60;0.60;;;5.80;99.90;;;;;;5139854;27;20056;-76
2022/01/14 03:30:50;;;;;;;1.67;1.58;;;5.80;99.90;;;;;;5139924;27;20470;-77
2022/01/14 03:33:16;;;;;;;1.08;0.98;;;5.80;99.90;;;;;;5158058;27;20057;-78
2022/01/14 03:35:42;;;;;;;0.70;0.70;;;5.80;99.90;;;;;;5139193;27;20046;-78
2022/01/14 03:38:08;;;;;;;2.13;1.95;;;6.00;99.90;;;;;;5139684;27;20046;-76
2022/01/14 03:40:33;;;;;;;1.25;1.15;;;5.80;99.90;;;;;;5157832;27;20334;-76
2022/01/14 03:42:59;;;;;;;0.98;0.98;;;5.80;99.90;;;;;;5139741;27;20042;-79
2022/01/14 03:45:24;;;;;;;0.73;0.73;;;5.80;99.90;;;;;;5157870;27;20043;-77
2022/01/14 03:47:50;;;;;;;0.82;0.82;;;5.80;99.90;;;;;;5157806;27;20051;-77
2022/01/14 03:50:16;;;;;;;1.85;1.75;;;5.80;99.90;;;;;;5139487;27;20419;-79
2022/01/14 03:52:41;;;;;;;0.55;0.55;;;5.80;99.90;;;;;;5139489;27;20382;-77
2022/01/14 03:55:07;;;;;;;2.25;2.15;;;5.80;99.90;;;;;;5139354;27;20563;-78
2022/01/14 03:57:33;;;;;;;0.80;0.80;;;5.80;99.90;;;;;;5140022;27;20070;-77
2022/01/14 03:59:58;;;;;;;1.63;1.52;;;5.80;99.90;;;;;;5157617;27;20048;-78
2022/01/14 04:02:24;;;;;;;1.55;1.45;;;5.80;99.90;;;;;;5157423;27;20038;-78
2022/01/14 04:04:49;;;;;;;0.73;0.73;;;5.80;99.90;;;;;;5139118;27;20050;-79
2022/01/14 04:07:15;;;;;;;0.95;0.95;;;5.80;99.90;;;;;;5139312;27;20054;-78
2022/01/14 04:09:41;;;;;;;0.50;0.50;;;5.80;99.90;;;;;;5138951;27;20090;-79
2022/01/14 04:12:09;;;;;;;0.97;0.80;;;5.80;99.90;;;;;;5157460;27;20045;-78
2022/01/14 04:17:02;;;;;;;0.95;0.60;;;5.80;99.90;;;;;;5157373;27;20049;-78
2022/01/14 04:19:29;;;;;;;0.93;0.93;;;5.80;99.90;;;;;;5138818;27;20065;-77
2022/01/14 04:21:55;;;;;;;;;;;5.80;99.90;;;;;;5138926;27;20131;-77
2022/01/14 04:24:20;;;;;;;0.85;0.85;;;5.80;99.90;;;;;;5121509;27;20294;-77
2022/01/14 04:26:46;;;;;;;0.88;0.88;;;5.80;99.90;;;;;;5138768;27;20171;-79
2022/01/14 04:29:11;;;;;;;1.33;1.25;;;5.80;99.90;;;;;;5138561;27;20169;-79
2022/01/14 04:31:37;;;;;;;1.38;1.27;;;5.80;99.90;;;;;;5138506;27;20474;-78
2022/01/14 04:34:03;;;;;;;0.77;0.77;;;5.80;99.90;;;;;;5138579;27;20038;-78
2022/01/14 04:36:28;;;;;;;1.02;0.93;;;5.80;99.90;;;;;;5156871;27;20046;-77
2022/01/14 04:38:54;;;;;;;1.95;1.85;;;5.80;99.90;;;;;;5138413;27;20499;-79
2022/01/14 04:41:19;;;;;;;0.55;0.55;;;5.80;99.90;;;;;;5138364;27;20038;-77
2022/01/14 04:43:45;;;;;;;1.20;1.13;;;5.80;99.90;;;;;;5138194;27;20062;-77
2022/01/14 04:48:37;;;;;;;1.92;1.75;;;5.80;99.90;;;;;;5156481;27;20116;-79
2022/01/14 04:51:05;;;;;;;;;;;5.60;99.90;;;;;;5156994;27;20065;-78
2022/01/14 04:53:30;;;;;;;0.60;0.60;;;5.80;99.90;;;;;;5138265;27;19925;-79
2022/01/14 04:55:57;;;;;;;0.77;0.77;;;5.80;99.90;;;;;;5156289;27;20129;-78
2022/01/14 04:58:24;;;;;;;0.80;0.80;;;5.80;99.90;;;;;;5137820;27;20042;-78
2022/01/14 05:00:49;;;;;;;;;;;5.80;99.90;;;;;;5156315;27;20768;-77
2022/01/14 05:03:15;;;;;;;1.10;1.05;;;5.80;99.90;;;;;;5137981;27;19929;-77
2022/01/14 05:05:45;;;;;;;9.95;1.70;;;5.80;99.90;;;;;;5137965;27;20484;-78
2022/01/14 05:08:18;;;;;;;0.60;0.60;;;5.80;99.90;;;;;;5156158;27;20054;-77
2022/01/14 05:11:00;;;;;;;4.13;1.05;;;5.80;99.90;;;;;;5156289;27;20091;-77
2022/01/14 05:13:26;;;;;;;1.17;1.08;;;5.80;99.90;;;;;;5156249;27;20121;-77
2022/01/14 05:15:53;;;;;;;1.17;1.05;;;5.70;99.90;;;;;;5156099;27;20081;-77
2022/01/14 05:18:19;;;;;;;11.18;5.50;;;5.70;99.90;;;;;;5156166;27;20050;-79
2022/01/14 05:20:44;;;;;;;1.48;1.30;;;5.70;99.90;;;;;;5155908;27;20038;-78
2022/01/14 05:23:10;;;;;;;0.82;0.82;;;5.70;99.90;;;;;;5156450;27;20043;-78
2022/01/14 05:25:36;;;;;;;0.57;0.57;;;5.70;99.90;;;;;;5155951;27;20046;-77
2022/01/14 05:28:01;;;;;;;0.60;0.60;;;5.70;99.90;;;;;;5156328;27;20045;-78
2022/01/14 05:30:27;;;;;;;1.05;1.05;;;5.70;99.90;;;;;;5155723;27;20129;-77
2022/01/14 05:32:54;;;;;;;0.95;0.95;;;5.70;99.90;;;;;;5120537;27;20049;-76
2022/01/14 05:35:24;;;;;;;1.45;1.35;;;5.70;99.90;;;;;;5137467;27;20039;-79
2022/01/14 05:37:50;;;;;;;1.45;1.08;;;5.70;99.90;;;;;;5137724;27;20038;-78
2022/01/14 05:40:17;;;;;;;0.60;0.60;;;5.70;99.90;;;;;;5120037;27;20622;-78
2022/01/14 05:42:43;;;;;;;0.93;0.93;;;5.70;99.90;;;;;;5155665;27;20042;-77
2022/01/14 05:45:11;;;;;;;1.23;1.13;;;5.60;99.90;;;;;;5137256;27;20077;-78
2022/01/14 05:47:38;;;;;;;1.60;1.50;;;5.70;99.90;;;;;;5136926;27;20075;-78
2022/01/14 05:50:07;;;;;;;6.03;3.28;;;5.60;99.90;;;;;;5137315;27;20049;-77
2022/01/14 05:52:33;;;;;;;3.40;1.98;;;5.60;99.90;;;;;;5155585;27;20477;-78
2022/01/14 05:54:58;;;;;;;0.60;0.60;;;5.60;99.90;;;;;;5137362;27;20051;-79
2022/01/14 05:57:24;;;;;;;2.45;2.25;;;5.60;99.90;;;;;;5137346;27;20061;-78
2022/01/14 05:59:50;;;;;;;1.15;1.13;;;5.70;99.90;;;;;;5158969;27;20042;-77
2022/01/14 06:02:16;;;;;;;0.82;0.80;;;5.60;99.90;;;;;;5124353;27;20099;-76
2022/01/14 06:04:43;;;;;;;1.40;1.30;;;5.60;99.90;;;;;;5141392;27;20129;-78
2022/01/14 06:07:09;;;;;;;1.50;1.40;;;5.60;99.90;;;;;;5159813;27;20103;-77
2022/01/14 06:09:35;;;;;;;0.50;0.50;;;5.60;99.90;;;;;;5141089;27;20047;-79
2022/01/14 06:12:01;;;;;;;1.98;1.88;;;5.60;99.90;;;;;;5123609;27;20035;-77
2022/01/14 06:14:26;;;;;;;0.75;0.75;;;5.60;99.90;;;;;;5159516;27;20154;-77
2022/01/14 06:16:52;;;;;;;1.25;1.15;;;5.50;99.90;;;;;;5142054;27;20424;-76
2022/01/14 06:19:17;;;;;;;1.27;0.73;;;5.50;99.90;;;;;;5141518;27;20046;-77
2022/01/14 06:21:43;;;;;;;1.35;1.25;;;5.60;99.90;;;;;;5141119;27;20039;-79
2022/01/14 06:24:09;;;;;;;0.50;0.50;;;5.60;99.90;;;;;;5159766;27;20097;-77
2022/01/14 06:26:34;;;;;;;0.50;0.50;;;5.60;99.90;;;;;;5159676;27;20035;-78
2022/01/14 06:29:00;;;;;;;2.15;1.95;;;5.50;99.90;;;;;;5159034;27;20086;-79
2022/01/14 06:31:25;;;;;;;1.33;1.23;;;5.50;99.90;;;;;;5140726;27;20085;-77
2022/01/14 06:33:51;;;;;;;0.82;0.82;;;5.60;99.90;;;;;;5158933;27;20138;-77
2022/01/14 06:36:16;;;;;;;0.70;0.60;;;5.50;99.90;;;;;;5141407;27;20043;-80
2022/01/14 06:38:42;;;;;;;0.75;0.75;;;5.50;99.90;;;;;;5123530;27;20490;-80
2022/01/14 06:41:08;;;;;;;1.25;1.15;;;5.50;99.90;;;;;;5158646;27;20077;-79
2022/01/14 06:43:33;;;;;;;0.70;0.70;;;5.40;99.90;;;;;;5123277;27;20045;-80
2022/01/14 06:45:59;;;;;;;0.50;0.50;;;5.60;99.90;;;;;;5140198;27;20050;-81
2022/01/14 06:48:25;;;;;;;0.50;0.50;;;5.50;99.90;;;;;;5123158;27;20074;-80
2022/01/14 06:50:51;;;;;;;0.70;0.70;;;5.60;99.90;;;;;;5140465;27;20449;-78
2022/01/14 06:53:16;;;;;;;0.80;0.80;;;5.60;99.90;;;;;;5158568;27;20043;-79
2022/01/14 06:55:42;;;;;;;0.50;0.50;;;5.60;99.90;;;;;;5140413;27;20038;-81
2022/01/14 06:58:08;;;;;;;0.60;0.60;;;5.60;99.90;;;;;;5158378;27;20087;-79
2022/01/14 07:00:36;;;;;;;0.50;0.50;;;5.60;99.90;;;;;;5140124;27;20129;-78
2022/01/14 07:03:02;;;;;;;0.80;0.80;;;5.60;99.90;;;;;;5140078;27;20046;-78
2022/01/14 07:05:28;;;;;;;0.80;0.80;;;5.60;99.90;;;;;;5139872;27;20115;-74
2022/01/14 07:07:53;;;;;;;1.60;1.50;;;5.60;99.90;;;;;;5158306;27;20107;-77
2022/01/14 07:10:19;;;;;;;1.48;1.15;;;5.60;99.90;;;;;;5157645;27;20046;-78
2022/01/14 07:12:44;;;;;;;3.30;1.50;;;5.60;99.90;;;;;;5139695;27;20038;-79
2022/01/14 07:15:13;;;;;;;2.17;1.98;;;5.60;99.90;;;;;;5158182;27;20057;-78
2022/01/14 07:17:39;;;;;;;1.10;1.02;;;5.60;99.90;;;;;;5158045;27;20038;-78
2022/01/14 07:20:10;;;;;;;1.55;1.45;;;5.60;99.90;;;;;;5157924;27;20390;-78
2022/01/14 07:22:36;;;;;;;0.82;0.82;;;5.60;99.90;;;;;;5139847;27;20043;-77
2022/01/14 07:25:03;;;;;;;0.80;0.80;;;5.60;99.90;;;;;;5157986;27;20125;-79
2022/01/14 07:27:29;;;;;;;0.75;0.75;;;5.60;99.90;;;;;;5139589;27;20047;-76
2022/01/14 07:29:55;;;;;;;2.20;1.75;;;5.60;99.90;;;;;;5157763;27;20046;-78
2022/01/14 07:32:21;;;;;;;1.03;1.03;;;5.50;99.90;;;;;;5157649;27;20043;-79
2022/01/14 07:34:47;;;;;;;2.77;0.80;;;5.60;99.90;;;;;;5139571;27;20154;-77
2022/01/14 07:37:14;;;;;;;1.88;1.13;;;5.70;99.90;;;;;;5158207;27;20043;-79
2022/01/14 07:39:39;;;;;;;1.58;1.42;;;5.60;99.90;;;;;;5139446;27;20057;-80
2022/01/14 07:42:06;;;;;;;1.42;1.33;;;5.60;99.90;;;;;;5157757;27;20482;-79
2022/01/14 07:44:31;;;;;;;2.67;2.00;;;5.60;99.90;;;;;;5157708;27;20502;-76
2022/01/14 07:46:57;;;;;;;0.60;0.60;;;5.80;99.90;;;;;;5139183;27;20085;-79
2022/01/14 07:49:22;;;;;;;1.25;1.02;;;5.70;99.90;;;;;;5139342;27;20151;-79
2022/01/14 07:51:48;;;;;;;0.50;0.50;;;5.70;99.90;;;;;;5157386;27;20419;-79
2022/01/14 07:54:14;;;;;;;1.38;1.25;;;5.70;99.90;;;;;;5157388;27;20042;-77
2022/01/14 07:56:47;;;;;;;0.70;0.70;;;5.70;99.90;;;;;;5139082;27;20390;-80
2022/01/14 07:59:14;;;;;;;0.50;0.50;;;5.70;99.90;;;;;;5138844;27;20505;-77
2022/01/14 08:01:40;;;;;;;;;;;5.70;99.90;;;;;;5157554;27;20038;-80
2022/01/14 08:04:06;;;;;;;0.68;0.68;;;5.70;99.90;;;;;;5157133;27;19926;-77
2022/01/14 08:06:34;;;;;;;0.70;0.70;;;5.70;99.90;;;;;;5157494;27;20126;-74
2022/01/14 08:09:00;;;;;;;1.02;1.02;;;5.80;99.90;;;;;;5157242;27;20039;-76
2022/01/14 08:11:26;;;;;;;0.50;0.50;;;5.70;99.90;;;;;;5157173;27;20039;-77
2022/01/14 08:13:51;;;;;;;0.50;0.50;;;5.70;99.90;;;;;;5157004;27;20390;-78
2022/01/14 08:16:17;;;;;;;0.75;0.75;;;5.80;99.90;;;;;;5156907;27;20034;-78
2022/01/14 08:18:42;;;;;;;1.35;1.25;;;5.90;99.90;;;;;;5122150;27;20050;-81
2022/01/14 08:21:08;;;;;;;1.95;1.85;;;5.80;99.90;;;;;;5155837;27;20498;-79
2022/01/14 08:23:34;;;;;;;0.50;0.50;;;5.80;99.90;;;;;;5156744;27;20474;-79
2022/01/14 08:25:59;;;;;;;1.00;1.00;;;5.80;99.90;;;;;;5138511;27;20049;-80
2022/01/14 08:28:26;;;;;;;0.70;0.70;;;5.80;99.90;;;;;;5156712;27;20039;-76
2022/01/14 08:30:52;;;;;;;0.60;0.60;;;5.80;99.90;;;;;;5138291;27;20051;-80
2022/01/14 08:33:18;;;;;;;0.70;0.70;;;5.90;99.90;;;;;;5138187;27;20046;-81
2022/01/14 08:35:45;;;;;;;0.80;0.80;;;5.90;99.90;;;;;;5156894;27;20493;-78
2022/01/14 08:38:10;;;;;;;0.60;0.60;;;5.90;99.90;;;;;;5156451;27;20038;-79
2022/01/14 08:40:36;;;;;;;0.65;0.65;;;5.90;99.90;;;;;;5156388;27;20695;-77
2022/01/14 08:43:03;;;;;;;1.23;0.93;;;5.90;99.90;;;;;;5117207;27;20368;-78
2022/01/14 08:45:28;;;;;;;0.63;0.63;;;5.80;99.90;;;;;;5133170;27;20095;-81
2022/01/14 08:47:55;;;;;;;0.68;0.68;;;5.90;99.90;;;;;;5113548;28;20488;-80
2022/01/14 08:50:34;;;;;;;2.40;1.73;;;5.90;99.90;;;;;;5114868;28;20070;-85
2022/01/14 08:53:01;;;;;;;0.60;0.60;;;6.20;99.90;;;;;;5097207;28;20058;-84
2022/01/14 08:55:27;;;;;;;0.57;0.57;;;6.00;99.90;;;;;;5114589;28;20040;-84
2022/01/14 08:57:53;;;;;;;0.68;0.68;;;6.00;99.90;;;;;;5114534;28;20055;-81
2022/01/14 09:00:22;;;;;;;0.60;0.60;;;6.00;99.90;;;;;;5114691;28;20043;-82
2022/01/14 09:02:47;;;;;;;0.77;0.70;;;6.10;99.90;;;;;;5113203;28;20273;-81
2022/01/14 09:05:13;;;;;;;0.50;0.50;;;6.10;99.90;;;;;;5096518;28;20134;-80
2022/01/14 09:07:39;;;;;;;0.73;0.73;;;6.10;99.90;;;;;;5113254;28;20392;-86
2022/01/14 09:10:07;;;;;;;0.70;0.70;;;6.20;99.90;;;;;;5114518;28;20052;-83
2022/01/14 09:12:33;;;;;;;0.95;0.68;;;6.20;99.90;;;;;;5114951;28;20046;-82
2022/01/14 09:15:00;;;;;;;0.50;0.50;;;6.20;99.90;;;;;;5133172;27;20039;-84
2022/01/14 09:17:26;;;;;;;;;;;6.20;99.90;;;;;;5134434;27;20526;-84
2022/01/14 09:19:52;;;;;;;0.85;0.70;;;6.20;99.90;;;;;;5133778;27;19919;-84
2022/01/14 09:22:18;;;;;;;0.82;0.82;;;9.00;99.90;;;;;;5134091;27;20146;-83
2022/01/14 09:24:45;;;;;;;0.60;0.60;;;6.30;99.90;;;;;;5133210;27;20047;-82
2022/01/14 09:27:11;;;;;;;;;;;6.40;99.90;;;;;;5100232;28;20051;-82
2022/01/14 09:29:37;;;;;;;0.50;0.50;;;7.40;99.90;;;;;;5116622;28;19926;-81
2022/01/14 09:32:03;;;;;;;0.50;0.50;;;6.40;99.90;;;;;;5133530;27;20383;-83
2022/01/14 09:34:28;;;;;;;0.50;0.50;;;6.40;99.90;;;;;;5134697;27;20126;-77
2022/01/14 09:36:54;;;;;;;0.63;0.63;;;6.40;99.90;;;;;;5134533;27;20196;-76
2022/01/14 09:39:20;;;;;;;0.60;0.60;;;6.50;99.90;;;;;;5135966;27;20100;-83
2022/01/14 09:41:46;;;;;;;1.17;1.08;;;6.50;99.90;;;;;;5137618;27;20092;-84
2022/01/14 09:44:14;;;;;;;0.65;0.65;;;6.50;99.90;;;;;;5135143;27;20040;-83
2022/01/14 09:46:40;;;;;;;4.40;1.95;;;6.60;99.90;;;;;;5134747;27;20039;-81
2022/01/14 09:49:05;;;;;;;1.63;1.52;;;6.60;99.90;;;;;;5119990;27;20046;-82
2022/01/14 09:51:31;;;;;;;0.70;0.70;;;6.60;99.90;;;;;;5136838;27;20157;-80
2022/01/14 09:53:59;;;;;;;0.50;0.50;;;6.60;99.90;;;;;;5136907;27;20547;-82
2022/01/14 09:56:25;;;;;;;1.05;1.02;;;6.70;99.90;;;;;;5136416;27;20043;-83
2022/01/14 09:58:51;;;;;;;0.50;0.50;;;6.70;99.90;;;;;;5136813;27;20046;-80
2022/01/14 10:01:23;;;;;;;0.60;0.60;;;7.20;99.90;;;;;;5136742;27;20114;-83
2022/01/14 10:03:57;;;;;;;0.50;0.50;;;6.80;99.90;;;;;;5136374;27;20074;-84
2022/01/14 10:06:36;;;;;;;0.60;0.60;;;6.80;99.90;;;;;;5155080;27;20056;-80
2022/01/14 10:09:15;;;;;;;0.65;0.65;;;6.80;99.90;;;;;;5102279;27;20043;-81
2022/01/14 10:11:42;;;;;;;0.60;0.60;;;6.80;99.90;;;;;;5136658;27;20035;-82
2022/01/14 10:14:11;;;;;;;1.38;1.27;;;6.90;99.90;;;;;;5137009;27;20068;-81
2022/01/14 10:16:41;;;;;;;0.70;0.70;;;6.90;99.90;;;;;;5136944;27;20053;-81
2022/01/14 10:19:18;;;;;;;0.50;0.50;;;6.90;99.90;;;;;;5136594;27;20060;-79
2022/01/14 10:21:43;;;;;;;0.70;0.70;;;7.00;99.90;;;;;;5136616;27;20130;-82
2022/01/14 10:24:11;;;;;;;0.82;0.82;;;7.00;99.90;;;;;;5155174;27;20078;-81
2022/01/14 10:26:51;;;;;;;0.50;0.50;;;7.00;99.90;;;;;;5136907;27;20107;-81
2022/01/14 10:29:38;;;;;;;0.90;0.90;;;7.50;99.90;;;;;;5136962;27;20039;-83
2022/01/14 10:32:07;;;;;;;1.17;0.88;;;7.00;99.90;;;;;;5102553;27;20038;-82
2022/01/14 10:34:34;;;;;;;0.95;0.60;;;7.10;99.90;;;;;;5136678;27;20039;-82
2022/01/14 10:37:12;;;;;;;0.60;0.60;;;7.10;99.90;;;;;;5155214;27;20559;-84
2022/01/14 10:39:48;;;;;;;0.60;0.50;;;7.10;99.90;;;;;;5119485;27;20046;-81
2022/01/14 10:42:33;;;;;;;1.40;0.60;;;7.10;99.90;;;;;;5137047;27;20046;-81
2022/01/14 10:45:22;;;;;;;3.90;3.63;;;7.20;99.90;;;;;;5138301;27;20042;-82
2022/01/14 10:47:57;;;;;;;0.50;0.50;;;7.20;99.90;;;;;;5124251;27;20053;-82
2022/01/14 10:50:28;;;;;;;1.15;0.98;;;7.20;99.90;;;;;;5158779;27;20074;-81
2022/01/14 10:52:54;;;;;;;0.50;0.50;;;7.30;99.90;;;;;;5139730;27;20134;-82
2022/01/14 10:55:34;;;;;;;0.60;0.60;;;7.30;99.90;;;;;;5140305;27;20086;-80
2022/01/14 10:58:02;;;;;;;1.27;0.90;;;7.30;99.90;;;;;;5158932;27;20047;-82
2022/01/14 11:00:28;;;;;;;0.85;0.85;;;7.30;99.90;;;;;;5139888;27;20091;-82
2022/01/14 11:02:56;;;;;;;0.50;0.50;;;7.30;99.90;;;;;;5158461;27;20095;-80
2022/01/14 11:05:23;;;;;;;0.63;0.60;;;7.30;99.90;;;;;;5140497;27;20077;-82
2022/01/14 11:07:50;;;;;;;0.60;0.60;;;7.30;99.90;;;;;;5140092;27;20062;-83
2022/01/14 11:10:21;;;;;;;;;;;7.30;99.90;;;;;;5158903;27;20078;-81
2022/01/14 11:12:55;;;;;;;0.50;0.50;;;7.30;99.90;;;;;;5139493;27;20343;-82
2022/01/14 11:15:22;;;;;;;0.65;0.65;;;7.30;99.90;;;;;;5140192;27;20089;-80
2022/01/14 11:17:53;;;;;;;0.65;0.65;;;7.30;99.90;;;;;;5158397;27;20083;-88
2022/01/14 11:20:25;;;;;;;0.52;0.52;;;7.30;99.90;;;;;;5122832;27;20046;-81
2022/01/14 11:25:38;;;;;;;0.40;0.40;;;7.40;99.90;;;;;;5143130;27;20055;-78
2022/01/14 11:28:05;;;;;;;0.77;0.70;;;7.30;99.90;;;;;;5139777;27;20047;-80
2022/01/14 11:30:33;;;;;;;1.20;0.90;;;7.30;99.90;;;;;;5139880;27;20053;-83
2022/01/14 11:33:02;;;;;;;1.15;1.05;;;7.30;99.90;;;;;;5157651;27;20058;-82
2022/01/14 11:35:28;;;;;;;0.50;0.50;;;7.30;99.90;;;;;;5157671;27;20134;-81
2022/01/14 11:37:54;;;;;;;0.60;0.60;;;7.30;99.90;;;;;;5157531;27;20076;-81
2022/01/14 11:40:20;;;;;;;0.50;0.50;;;7.30;99.90;;;;;;5139575;27;20042;-84
2022/01/14 11:42:58;;;;;;;0.50;0.50;;;7.30;99.90;;;;;;5139337;27;20054;-80
2022/01/14 11:45:42;;;;;;;0.50;0.50;;;7.30;99.90;;;;;;5138664;27;20053;-79
2022/01/14 11:48:08;;;;;;;0.55;0.55;;;7.30;99.90;;;;;;5135849;27;20058;-81
2022/01/14 11:50:37;;;;;;;0.50;0.50;;;7.30;99.90;;;;;;5136299;27;20509;-84
2022/01/14 11:53:02;;;;;;;0.50;0.50;;;7.30;99.90;;;;;;5118475;27;20379;-83
2022/01/14 11:55:29;;;;;;;0.63;0.63;;;7.30;99.90;;;;;;5135345;27;20054;-83
2022/01/14 11:58:03;;;;;;;0.50;0.50;;;7.30;99.90;;;;;;5118062;27;20051;-84
2022/01/14 12:00:30;;;;;;;0.50;0.50;;;7.30;99.90;;;;;;5118066;27;20075;-83
2022/01/14 12:02:56;;;;;;;0.50;0.50;;;7.40;99.90;;;;;;5117892;27;20491;-83
2022/01/14 12:05:30;;;;;;;0.50;0.50;;;8.30;99.90;;;;;;5117601;27;20062;-83
2022/01/14 12:08:05;;;;;;;0.50;0.50;;;7.70;99.90;;;;;;5135084;27;20058;-83
2022/01/14 12:10:52;;;;;;;0.50;0.50;;;7.30;99.90;;;;;;5135951;27;20387;-83
2022/01/14 12:13:50;;;;;;;0.50;0.50;;;7.30;99.90;;;;;;5118142;27;20269;-82
2022/01/14 12:16:47;;;;;;;0.40;0.40;;;7.30;99.90;;;;;;5136270;27;20054;-82
2022/01/14 12:19:05;;;;;;;0.50;0.50;;;7.40;99.90;;;;;;5135469;27;20047;-82
2022/01/14 12:21:50;;;;;;;0.50;0.50;;;7.40;99.90;;;;;;5136036;27;20092;-83
2022/01/14 12:24:18;;;;;;;0.95;0.73;;;7.40;99.90;;;;;;5135134;27;20062;-83
2022/01/14 12:27:08;;;;;;;0.40;0.40;;;7.40;99.90;;;;;;5135854;27;20039;-83
2022/01/14 12:29:37;;;;;;;0.50;0.50;;;7.40;99.90;;;;;;5135811;27;20130;-82
2022/01/14 12:32:11;;;;;;;0.50;0.50;;;7.40;99.90;;;;;;5135644;27;20092;-83
2022/01/14 12:34:39;;;;;;;0.50;0.50;;;7.40;99.90;;;;;;5135537;27;20444;-84
2022/01/14 12:37:06;;;;;;;0.65;0.65;;;7.40;99.90;;;;;;5134600;27;20096;-82
2022/01/14 12:39:32;;;;;;;;;;;7.40;99.90;;;;;;5135921;27;20050;-83
2022/01/14 12:42:00;;;;;;;0.55;0.55;;;7.50;99.90;;;;;;5134291;27;19926;-83
2022/01/14 12:44:26;;;;;;;0.50;0.50;;;7.50;99.90;;;;;;5135415;27;20050;-83
2022/01/14 12:47:07;;;;;;;0.50;0.50;;;7.50;99.90;;;;;;5137624;27;20162;-82
2022/01/14 12:49:35;;;;;;;0.50;0.50;;;7.50;99.90;;;;;;5156005;27;20043;-82
2022/01/14 12:52:14;;;;;;;0.50;0.50;;;7.30;99.90;;;;;;5120825;27;20069;-83
2022/01/14 12:54:42;;;;;;;0.50;0.50;;;7.50;99.90;;;;;;5137304;27;20085;-82
2022/01/14 12:57:08;;;;;;;0.60;0.60;;;7.50;99.90;;;;;;5156052;27;20066;-83
2022/01/14 12:59:39;;;;;;;0.50;0.50;;;7.50;99.90;;;;;;5156109;27;20046;-82
2022/01/14 13:02:05;;;;;;;4.00;1.25;;;7.50;99.90;;;;;;5155925;27;20047;-83
2022/01/14 13:04:31;;;;;;;0.50;0.50;;;7.60;99.90;;;;;;5143338;27;20092;-80
2022/01/14 13:07:01;;;;;;;0.50;0.50;;;7.50;99.90;;;;;;5120076;27;20497;-77
2022/01/14 13:09:32;;;;;;;0.85;0.85;;;7.50;99.90;;;;;;5149935;27;20087;-74
2022/01/14 13:12:03;;;;;;;0.50;0.50;;;7.50;99.90;;;;;;5156008;27;20043;-81
2022/01/14 13:14:45;;;;;;;0.50;0.50;;;7.50;99.90;;;;;;5137529;27;20046;-77
2022/01/14 13:17:26;;;;;;;0.50;0.50;;;7.50;99.90;;;;;;5155976;27;20046;-79
2022/01/14 13:20:00;;;;;;;0.70;0.70;;;7.50;99.90;;;;;;5155666;27;20375;-79
2022/01/14 13:22:30;;;;;;;0.50;0.50;;;7.50;99.90;;;;;;5155656;27;20043;-84
2022/01/14 13:24:58;;;;;;;0.40;0.40;;;7.50;99.90;;;;;;5137120;27;20063;-79
2022/01/14 13:27:30;;;;;;;1.05;0.95;;;7.50;99.90;;;;;;5137315;27;20039;-78
2022/01/14 13:30:03;;;;;;;0.60;0.60;;;7.50;99.90;;;;;;5155607;27;20046;-85
2022/01/14 13:32:31;;;;;;;0.40;0.40;;;7.50;99.90;;;;;;5124745;27;20039;-82
2022/01/14 13:35:09;;;;;;;1.13;1.02;;;7.40;99.90;;;;;;5141364;27;20042;-84